This is the latest recevied weather packets stored in our database for station/object K4MUW-4. If no packets are shown the sender has not sent any weather packets the latest 1 day(s).
| Time | Temp. | Humidity | Pressure | Rain* | Wind** | Luminosity | Snow |
|---|---|---|---|---|---|---|---|
| 1778013183 | 25.56° C | 23% | 1010 hPa | 0 mm | 2.68 m/s, 195° | - | - |
| 1778012883 | 26.11° C | 24% | 1010 hPa | 0 mm | 1.79 m/s, 207° | - | - |
| 1778012582 | 26.11° C | 24% | 1010 hPa | 0 mm | 1.79 m/s, 174° | - | - |
| 1778012320 | 25.56° C | 24% | 1010 hPa | 0 mm | 2.24 m/s, 188° | - | - |
| 1778012282 | 25.56° C | 24% | 1010 hPa | 0 mm | 2.24 m/s, 188° | - | - |
| 1778011982 | 25.56° C | 24% | 1010 hPa | 0 mm | 1.34 m/s, 150° | - | - |
| 1778011681 | 25.56° C | 23% | 1010 hPa | 0 mm | 3.13 m/s, 252° | - | - |
| 1778011381 | 25.56° C | 24% | 1011 hPa | 0 mm | 2.24 m/s, 128° | - | - |
| 1778011080 | 25.56° C | 23% | 1011 hPa | 0 mm | 0 m/s | - | - |
| 1778010775 | 25.56° C | 24% | 1011 hPa | 0 mm | 1.79 m/s, 189° | - | - |
| 1778010475 | 25.56° C | 24% | 1011 hPa | 0 mm | 2.24 m/s, 188° | - | - |
| 1778010174 | 25.56° C | 24% | 1011 hPa | 0 mm | 2.68 m/s, 147° | - | - |
| 1778009874 | 25.56° C | 24% | 1011 hPa | 0 mm | 1.79 m/s, 160° | - | - |
| 1778009564 | 25.56° C | 24% | 1011 hPa | 0 mm | 2.68 m/s, 205° | - | - |
| 1778009264 | 25.56° C | 24% | 1011 hPa | 0 mm | 1.79 m/s, 190° | - | - |
| 1778008963 | 25.56° C | 23% | 1011 hPa | 0 mm | 1.79 m/s, 180° | - | - |
| 1778008663 | 25.56° C | 24% | 1011 hPa | 0 mm | 2.24 m/s, 215° | - | - |
| 1778008358 | 25.56° C | 24% | 1011 hPa | 0 mm | 2.24 m/s, 188° | - | - |
| 1778008053 | 25.56° C | 24% | 1011 hPa | 0 mm | 2.68 m/s, 201° | - | - |
| 1778007752 | 25.56° C | 26% | 1011 hPa | 0 mm | 0 m/s | - | - |
| 1778007452 | 25° C | 25% | 1011 hPa | 0 mm | 1.34 m/s, 176° | - | - |
| 1778007152 | 25° C | 25% | 1011 hPa | 0 mm | 1.34 m/s, 172° | - | - |
| 1778006851 | 25° C | 25% | 1011 hPa | 0 mm | 1.79 m/s, 184° | - | - |
| 1778006494 | 25° C | 25% | 1011 hPa | 0 mm | 0 m/s | - | - |
| 1778006189 | 25° C | 24% | 1011 hPa | 0 mm | 1.34 m/s, 170° | - | - |
* Rain latest hour (hover to see other rain measurements)
** Current wind speed in m/s (hover to see current wind gust speed)